Terminal Aerodrome Forecast
Issued by NWS Billings, MT

Home | Current Version | Previous Version | Text Only | Print | Product List | Glossary On
Versions: 1 2 3 4 5 6 7 8 9 10 11 12 13 14 15 16 17 18 19 20 21 22 23 24 25 26 27 28 29 30 31
000
FTUS45 KBYZ 292320
TAFBIL
TAF
KBIL 292320Z 3000/3024 23012KT P6SM VCTS BKN100CB
     FM300300 26014KT P6SM VCSH BKN100
     FM301200 30015KT P6SM BKN150
     FM301800 24020KT P6SM VCTS BKN090CB=

USA.gov is the U.S. government's official web portal to all federal, state and local government web resources and services.